Flugplatz Leer-Papenburg

Für EDWF sind keine METAR/TAF Berichte vorhanden.
Es werden die Flugwettermeldungen vom Flugplatz Wittmundhafen Airport in 34 km Entfernung angezeigt.

Bericht für ETNT

vom 20.02. um 20:36 UTC

Wind 17 kt aus 300° in Böen 27 kt

Sichtweite 10 km oder mehr

schwacher Regen

gering bewölkt in 1700 ft

aufgebrochene Bewölkung in 3600 ft

Temperatur 5.0°C

Taupunkt 3.0°C

Luftfeuchtigkeit 87%

Luftdruck 1005 hPa

ETNT 202036Z 30017G27KT 9999 -RA FEW017 BKN036 05/03 Q1005 BLU

Prognose für ETNT

vom 20.02. um 00:00 UTC

Zwischen 00:00 UTC und 00:00 UTC

Wind 18 kt aus 280° in Böen 28 kt

Sichtweite 7000 m

schwacher Regen

aufgebrochene Bewölkung in 1200 ft


Zwischen 00:00 UTC und 00:00 UTC zeitweise

Wind 25 kt aus 290° in Böen 40 kt

Sichtweite 3000 m

Regenschauer

aufgebrochene Bewölkung in 500 ft


Am 21.02. zwischen 00:00 und 00:00 UTC übergehend zu

Wind 15 kt aus 270° in Böen 28 kt

Sichtweite 10 km oder mehr

keine signifikanten Wettererscheinungen

aufgebrochene Bewölkung in 2500 ft

TAF ETNT 202000Z 2021/2106 28018G28KT 7000 -RA BKN012 TEMPO 2021/2024 29025G40KT 3000 SHRA BKN005CB BECMG 2100/2101 27015G28KT 9999 NSW BKN025 BY ETGL
Impressum